Time;durP1;ratioP1;P1;durP2;ratioP2;P2;SDS_P1;SDS_P2;PMS_P1;PMS_P2;Temp;Humidity;BMP_temperature;BMP_pressure;BME280_temperature;BME280_humidity;BME280_pressure;Samples;Min_cycle;Max_cycle;Signal;HPM_P1;HPM_P2
2023/12/06 00:02:19;;;;;;;8.70;4.20;;;;;;;13.66;49.31;101955.18;110524;1268;22210;-57
2023/12/06 00:04:47;;;;;;;6.00;3.50;;;;;;;13.68;48.99;101952.70;110526;1256;22355;-57
2023/12/06 00:07:15;;;;;;;9.50;3.90;;;;;;;13.70;48.90;101955.12;110456;1253;22378;-57
2023/12/06 00:09:43;;;;;;;10.70;3.80;;;;;;;13.71;48.81;101948.46;110441;1257;22376;-59
2023/12/06 00:12:10;;;;;;;10.60;4.40;;;;;;;13.72;48.39;101955.79;110302;1260;22125;-57
2023/12/06 00:14:38;;;;;;;8.10;3.40;;;;;;;13.72;48.41;101954.75;110489;1252;23110;-58
2023/12/06 00:17:06;;;;;;;8.90;4.10;;;;;;;13.72;48.67;101951.42;110380;1256;22380;-58
2023/12/06 00:19:33;;;;;;;12.40;4.40;;;;;;;13.74;48.66;101948.26;110461;1256;22910;-58
2023/12/06 00:22:01;;;;;;;12.10;4.60;;;;;;;13.75;48.78;101943.88;110457;1256;23088;-57
2023/12/06 00:24:29;;;;;;;11.10;4.20;;;;;;;13.76;48.37;101942.64;110415;1257;22329;-58
2023/12/06 00:26:56;;;;;;;9.90;3.50;;;;;;;13.76;48.24;101944.03;110528;1268;22418;-58
2023/12/06 00:29:24;;;;;;;9.40;3.80;;;;;;;13.78;48.30;101943.14;110295;1255;22147;-58
2023/12/06 00:31:52;;;;;;;6.80;3.80;;;;;;;13.77;48.34;101942.10;110507;1260;22173;-57
2023/12/06 00:34:19;;;;;;;9.50;3.20;;;;;;;13.80;48.28;101943.27;110219;1258;22740;-58
2023/12/06 00:36:48;;;;;;;10.20;4.00;;;;;;;13.81;48.15;101942.90;110484;1256;23041;-57
2023/12/06 00:39:15;;;;;;;7.30;3.60;;;;;;;13.81;48.08;101941.00;110485;1256;22313;-57
2023/12/06 00:41:46;;;;;;;8.90;3.60;;;;;;;13.80;48.07;101941.34;110486;1258;22241;-59
2023/12/06 00:44:14;;;;;;;11.00;4.10;;;;;;;13.83;48.02;101939.73;110450;1254;23098;-58
2023/12/06 00:46:42;;;;;;;9.30;4.00;;;;;;;13.85;48.45;101933.23;110163;1260;22357;-58
2023/12/06 00:49:10;;;;;;;4.60;3.10;;;;;;;13.84;48.23;101933.61;110039;1263;22149;-57
2023/12/06 00:51:39;;;;;;;8.50;3.40;;;;;;;13.84;47.80;101929.77;109727;1256;1002425;-58
2023/12/06 00:54:07;;;;;;;7.60;3.70;;;;;;;13.82;47.36;101929.12;110542;1257;22455;-58
2023/12/06 00:56:34;;;;;;;6.00;3.20;;;;;;;13.81;47.37;101931.39;109463;1255;1002776;-58
2023/12/06 00:59:04;;;;;;;8.70;3.90;;;;;;;13.81;47.65;101928.77;109750;1275;1002762;-58
2023/12/06 01:01:31;;;;;;;7.20;3.60;;;;;;;13.81;47.47;101928.59;110467;1275;22314;-58
2023/12/06 01:03:59;;;;;;;10.90;3.50;;;;;;;13.81;47.45;101923.54;109712;1256;1002657;-58
2023/12/06 01:06:28;;;;;;;5.60;3.40;;;;;;;13.81;47.25;101918.30;110502;1268;22128;-58
2023/12/06 01:08:56;;;;;;;8.00;3.50;;;;;;;13.81;47.19;101914.29;110173;1257;22347;-58
2023/12/06 01:11:24;;;;;;;8.50;3.40;;;;;;;13.80;47.34;101910.12;110533;1256;22357;-58
2023/12/06 01:13:52;;;;;;;8.70;3.70;;;;;;;13.81;47.20;101910.63;110481;1257;22362;-58
2023/12/06 01:16:20;;;;;;;6.90;2.80;;;;;;;13.81;46.96;101909.06;110518;1268;22407;-58
2023/12/06 01:18:48;;;;;;;8.40;3.70;;;;;;;13.83;46.80;101909.73;110086;1258;22396;-58
2023/12/06 01:21:16;;;;;;;9.50;3.60;;;;;;;13.83;46.73;101902.23;110450;1256;22316;-58
2023/12/06 01:23:43;;;;;;;8.90;4.20;;;;;;;13.84;47.07;101902.22;110362;1259;22537;-58
2023/12/06 01:26:11;;;;;;;9.90;3.70;;;;;;;13.84;47.27;101900.46;110524;1256;22130;-58
2023/12/06 01:28:41;;;;;;;12.80;3.60;;;;;;;13.86;47.19;101894.85;110243;1255;22405;-57
2023/12/06 01:31:09;;;;;;;7.40;2.80;;;;;;;13.88;46.93;101891.86;110522;1257;22132;-58
2023/12/06 01:33:36;;;;;;;5.90;3.10;;;;;;;13.87;46.70;101889.08;110327;1259;22122;-58
2023/12/06 01:36:05;;;;;;;6.20;3.00;;;;;;;13.87;46.83;101885.77;110544;1256;23013;-57
2023/12/06 01:38:32;;;;;;;8.00;3.60;;;;;;;13.87;46.75;101886.29;110518;1269;22131;-58
2023/12/06 01:41:00;;;;;;;8.70;3.30;;;;;;;13.86;46.83;101880.73;110195;1259;22282;-58
2023/12/06 01:43:27;;;;;;;7.90;3.10;;;;;;;13.84;46.72;101872.23;110517;1256;22611;-58
2023/12/06 01:45:55;;;;;;;8.10;4.20;;;;;;;13.83;47.02;101871.88;110534;1255;22405;-58
2023/12/06 01:48:23;;;;;;;7.10;3.50;;;;;;;13.83;47.25;101869.63;110521;1257;22611;-58
2023/12/06 01:50:50;;;;;;;8.90;3.80;;;;;;;13.81;47.35;101871.03;110522;1259;22357;-58
2023/12/06 01:53:18;;;;;;;11.50;4.80;;;;;;;13.79;47.39;101863.75;110507;1267;22309;-57
2023/12/06 01:55:46;;;;;;;6.10;3.70;;;;;;;13.66;47.65;101866.43;110488;1252;22252;-59
2023/12/06 01:58:13;;;;;;;9.30;3.80;;;;;;;13.58;47.92;101864.13;110536;1257;23133;-58
2023/12/06 02:00:41;;;;;;;8.80;3.60;;;;;;;13.60;47.83;101861.66;109568;1272;1002483;-58
2023/12/06 02:03:09;;;;;;;9.50;4.30;;;;;;;13.77;47.73;101862.58;110518;1275;23033;-58
2023/12/06 02:05:37;;;;;;;9.30;4.90;;;;;;;13.81;47.61;101861.98;110484;1256;22356;-58
2023/12/06 02:08:05;;;;;;;8.60;4.40;;;;;;;13.81;47.44;101861.63;110262;1255;22148;-58
2023/12/06 02:10:33;;;;;;;10.40;5.10;;;;;;;13.82;47.46;101864.94;109770;1268;1002291;-58
2023/12/06 02:13:00;;;;;;;9.10;4.70;;;;;;;13.83;47.34;101863.70;110615;1259;22893;-58
2023/12/06 02:15:28;;;;;;;9.00;4.10;;;;;;;13.83;47.22;101864.38;110561;1256;22414;-58
2023/12/06 02:17:55;;;;;;;9.40;3.90;;;;;;;13.84;47.11;101862.80;110274;1255;22401;-58
2023/12/06 02:20:24;;;;;;;7.70;3.20;;;;;;;13.84;46.66;101864.73;110361;1258;22159;-58
2023/12/06 02:22:52;;;;;;;7.40;3.90;;;;;;;13.84;46.76;101865.23;110314;1258;22278;-58
2023/12/06 02:25:20;;;;;;;8.60;4.00;;;;;;;13.83;46.61;101868.05;109494;1258;1003085;-58
2023/12/06 02:27:48;;;;;;;8.80;3.70;;;;;;;13.82;46.35;101866.32;110503;1275;22352;-58
2023/12/06 02:30:16;;;;;;;8.30;3.40;;;;;;;13.78;46.11;101864.30;110246;1257;22285;-58
2023/12/06 02:32:43;;;;;;;8.60;3.40;;;;;;;13.77;45.83;101862.21;110556;1258;22300;-58
2023/12/06 02:35:18;;;;;;;8.50;3.20;;;;;;;13.75;45.95;101862.60;110174;1260;22119;-57
2023/12/06 02:37:46;;;;;;;7.50;3.30;;;;;;;13.75;46.01;101857.55;110510;1260;22207;-58
2023/12/06 02:40:14;;;;;;;10.90;3.30;;;;;;;13.75;45.83;101853.70;110304;1255;22402;-58
2023/12/06 02:42:42;;;;;;;6.90;3.00;;;;;;;13.74;45.51;101853.39;110370;1258;22384;-58
2023/12/06 02:45:10;;;;;;;10.10;3.00;;;;;;;13.73;45.27;101849.56;110529;1257;23220;-58
2023/12/06 02:47:37;;;;;;;8.50;3.60;;;;;;;13.73;45.43;101849.55;110496;1256;22345;-58
2023/12/06 02:50:06;;;;;;;9.70;3.80;;;;;;;13.75;45.57;101846.92;109795;1268;1002341;-58
2023/12/06 02:52:34;;;;;;;12.80;3.30;;;;;;;13.75;45.47;101849.18;109813;1257;1002701;-58
2023/12/06 02:55:01;;;;;;;8.80;3.40;;;;;;;13.75;45.41;101851.27;109799;1256;1002493;-58
2023/12/06 02:57:29;;;;;;;8.10;3.40;;;;;;;13.77;45.69;101852.81;109817;1256;1003414;-58
2023/12/06 02:59:56;;;;;;;11.30;2.80;;;;;;;13.78;45.56;101855.76;109513;1260;1003119;-58
2023/12/06 03:02:24;;;;;;;7.80;3.30;;;;;;;13.78;45.02;101851.39;110551;1253;22315;-58
2023/12/06 03:04:52;;;;;;;11.30;3.60;;;;;;;13.78;44.97;101856.64;109794;1257;1002353;-58
2023/12/06 03:07:19;;;;;;;11.80;3.40;;;;;;;13.79;44.80;101861.31;109781;1256;1006804;-58
2023/12/06 03:09:47;;;;;;;5.80;3.60;;;;;;;13.81;44.82;101863.90;110525;1258;22371;-58
2023/12/06 03:12:15;;;;;;;6.20;3.10;;;;;;;13.82;44.73;101866.66;110600;1257;22197;-58
2023/12/06 03:14:43;;;;;;;6.90;3.40;;;;;;;13.82;44.96;101865.79;110630;1257;22161;-58
2023/12/06 03:17:10;;;;;;;10.00;3.50;;;;;;;13.70;45.35;101864.97;110525;1258;23051;-58
2023/12/06 03:19:38;;;;;;;10.40;3.50;;;;;;;13.66;45.24;101866.96;110511;1257;22177;-58
2023/12/06 03:22:06;;;;;;;7.70;3.70;;;;;;;13.64;45.34;101867.16;110546;1260;22909;-58
2023/12/06 03:24:34;;;;;;;7.00;3.40;;;;;;;13.63;45.09;101868.74;110281;1255;23118;-58
2023/12/06 03:27:02;;;;;;;7.90;3.50;;;;;;;13.63;45.08;101869.09;110567;1257;22140;-58
2023/12/06 03:29:30;;;;;;;5.60;3.40;;;;;;;13.63;45.21;101866.83;109501;1261;1002690;-58
2023/12/06 03:31:57;;;;;;;8.10;3.30;;;;;;;13.68;45.13;101869.17;110140;1262;22969;-58
2023/12/06 03:34:25;;;;;;;8.80;4.40;;;;;;;13.75;44.86;101868.20;110539;1258;22141;-58
2023/12/06 03:36:53;;;;;;;7.20;3.80;;;;;;;13.68;45.28;101867.42;110291;1260;23158;-58
2023/12/06 03:39:21;;;;;;;11.00;3.90;;;;;;;13.61;45.58;101864.95;110524;1258;22785;-58
2023/12/06 03:41:49;;;;;;;11.60;4.10;;;;;;;13.73;45.40;101870.50;110555;1259;22419;-58
2023/12/06 03:44:17;;;;;;;14.00;4.30;;;;;;;13.77;45.33;101870.77;110557;1257;22174;-58
2023/12/06 03:46:45;;;;;;;6.70;3.90;;;;;;;13.78;45.28;101873.37;110216;1273;22337;-58
2023/12/06 03:49:12;;;;;;;10.00;4.30;;;;;;;13.79;45.34;101869.70;110502;1258;22867;-58
2023/12/06 03:51:40;;;;;;;8.70;4.10;;;;;;;13.78;45.19;101870.05;110591;1256;22136;-58
2023/12/06 03:54:08;;;;;;;9.40;4.80;;;;;;;13.77;45.05;101866.77;110515;1268;22126;-58
2023/12/06 03:56:36;;;;;;;9.70;4.50;;;;;;;13.74;45.09;101871.70;110537;1257;22387;-58
2023/12/06 03:59:04;;;;;;;8.70;4.10;;;;;;;13.72;45.34;101876.78;110568;1256;22427;-58
2023/12/06 04:01:32;;;;;;;9.30;4.00;;;;;;;13.71;45.29;101875.93;109803;1257;1003097;-58
2023/12/06 04:03:59;;;;;;;11.50;4.70;;;;;;;13.69;45.37;101884.16;110516;1263;22140;-58
2023/12/06 04:06:27;;;;;;;12.50;5.50;;;;;;;13.69;45.84;101881.54;110501;1268;22429;-58
2023/12/06 04:08:55;;;;;;;12.80;5.70;;;;;;;13.68;46.30;101884.70;110588;1268;23066;-58
2023/12/06 04:11:22;;;;;;;11.20;5.50;;;;;;;13.66;46.63;101883.52;110219;1268;22385;-58
2023/12/06 04:13:50;;;;;;;13.10;5.60;;;;;;;13.64;46.84;101886.16;110546;1257;22418;-58
2023/12/06 04:16:18;;;;;;;9.00;5.00;;;;;;;13.65;46.88;101884.40;110259;1261;22321;-58
2023/12/06 04:18:45;;;;;;;9.40;5.40;;;;;;;13.62;46.73;101885.33;110567;1257;23188;-58
2023/12/06 04:21:13;;;;;;;11.70;5.70;;;;;;;13.58;46.87;101889.41;110533;1273;23015;-58
2023/12/06 04:23:41;;;;;;;7.20;5.30;;;;;;;13.53;46.93;101887.58;110282;1261;22254;-58
2023/12/06 04:26:09;;;;;;;13.50;5.70;;;;;;;13.47;47.11;101892.88;110550;1256;22955;-58
2023/12/06 04:28:37;;;;;;;13.90;6.40;;;;;;;13.44;47.13;101883.86;110550;1275;22137;-58
2023/12/06 04:31:04;;;;;;;10.30;5.60;;;;;;;13.40;47.21;101890.04;110564;1256;22215;-58
2023/12/06 04:33:32;;;;;;;11.90;6.30;;;;;;;13.38;47.25;101888.67;110492;1269;22161;-58
2023/12/06 04:36:00;;;;;;;11.30;6.10;;;;;;;13.36;47.18;101891.68;110540;1269;22175;-57
2023/12/06 04:38:28;;;;;;;17.60;6.40;;;;;;;13.33;47.02;101887.54;110495;1257;22390;-58
2023/12/06 04:40:56;;;;;;;15.40;6.80;;;;;;;13.30;47.06;101883.58;110609;1254;22130;-58
2023/12/06 04:43:24;;;;;;;12.30;6.10;;;;;;;13.29;47.02;101882.38;110263;1261;23038;-58
2023/12/06 04:45:52;;;;;;;9.20;5.60;;;;;;;13.27;47.00;101883.09;110274;1256;22314;-58
2023/12/06 04:48:21;;;;;;;10.70;4.80;;;;;;;13.24;46.88;101885.58;110549;1258;22440;-58
2023/12/06 04:50:48;;;;;;;10.30;5.50;;;;;;;13.19;46.99;101884.80;109734;1257;1003052;-58
2023/12/06 04:53:16;;;;;;;8.50;5.80;;;;;;;13.14;47.07;101884.84;109758;1259;1003262;-58
2023/12/06 04:55:44;;;;;;;10.70;5.40;;;;;;;13.12;47.20;101882.63;109782;1257;1002628;-59
2023/12/06 04:58:11;;;;;;;10.70;6.50;;;;;;;13.10;47.23;101882.13;109832;1256;1002414;-58
2023/12/06 05:00:39;;;;;;;14.40;6.40;;;;;;;13.08;47.30;101879.18;110608;1269;22131;-58
2023/12/06 05:03:07;;;;;;;15.10;7.00;;;;;;;13.07;47.42;101884.08;110554;1257;22376;-58
2023/12/06 05:05:35;;;;;;;21.50;6.30;;;;;;;13.08;47.41;101881.44;110530;1269;23112;-58
2023/12/06 05:08:03;;;;;;;15.30;7.00;;;;;;;13.08;47.43;101884.92;109809;1256;1002862;-58
2023/12/06 05:10:31;;;;;;;10.70;5.80;;;;;;;13.06;47.41;101884.95;110266;1261;22322;-58
2023/12/06 05:12:59;;;;;;;14.80;6.20;;;;;;;13.06;47.25;101885.14;110559;1257;22639;-58
2023/12/06 05:15:27;;;;;;;15.90;6.50;;;;;;;13.05;47.35;101885.14;110518;1256;22155;-58
2023/12/06 05:17:56;;;;;;;10.90;6.80;;;;;;;13.05;47.40;101885.32;110525;1259;22135;-58
2023/12/06 05:20:24;;;;;;;10.40;6.20;;;;;;;13.02;47.32;101886.89;110540;1269;22526;-58
2023/12/06 05:22:52;;;;;;;10.40;6.20;;;;;;;13.02;47.31;101881.85;110487;1269;22311;-58
2023/12/06 05:25:20;;;;;;;19.20;7.70;;;;;;;13.01;47.09;101883.24;109790;1257;1002228;-57
2023/12/06 05:27:48;;;;;;;15.20;6.70;;;;;;;12.98;46.86;101882.95;110266;1260;23030;-57
2023/12/06 05:30:16;;;;;;;8.90;6.30;;;;;;;12.96;47.07;101882.80;110574;1256;22145;-58
2023/12/06 05:32:43;;;;;;;15.50;7.20;;;;;;;12.96;47.10;101891.34;110518;1258;22438;-58
2023/12/06 05:35:11;;;;;;;10.60;6.90;;;;;;;12.95;47.13;101888.56;110571;1256;22299;-58
2023/12/06 05:37:39;;;;;;;13.30;7.40;;;;;;;12.91;47.14;101892.27;110508;1257;22139;-58
2023/12/06 05:40:07;;;;;;;10.80;7.60;;;;;;;12.90;47.15;101899.10;110467;1258;22824;-58
2023/12/06 05:42:34;;;;;;;11.90;7.50;;;;;;;12.87;47.09;101899.48;110493;1259;22338;-57
2023/12/06 05:45:05;;;;;;;12.50;6.60;;;;;;;12.84;47.06;101902.11;110512;1256;22445;-58
2023/12/06 05:47:32;;;;;;;13.00;7.40;;;;;;;12.82;47.00;101901.45;109789;1258;1002672;-58
2023/12/06 05:50:00;;;;;;;11.30;7.60;;;;;;;12.82;47.10;101904.59;110525;1257;22407;-57
2023/12/06 05:52:28;;;;;;;10.20;6.30;;;;;;;12.80;46.91;101905.48;110571;1257;22299;-58
2023/12/06 05:54:56;;;;;;;18.10;7.30;;;;;;;12.81;46.83;101904.77;110554;1257;22383;-57
2023/12/06 05:57:24;;;;;;;11.60;6.80;;;;;;;12.79;46.82;101904.98;110602;1256;22167;-58
2023/12/06 05:59:54;;;;;;;15.10;7.20;;;;;;;12.76;46.80;101906.23;110326;1259;22442;-58
2023/12/06 06:02:22;;;;;;;12.30;7.00;;;;;;;12.75;46.75;101907.65;110237;1260;22412;-58
2023/12/06 06:04:50;;;;;;;10.90;6.80;;;;;;;12.76;46.69;101908.51;110538;1258;22168;-58
2023/12/06 06:07:18;;;;;;;9.50;6.20;;;;;;;12.75;46.71;101906.07;110237;1260;22298;-58
2023/12/06 06:09:46;;;;;;;9.60;7.30;;;;;;;12.71;47.01;101907.68;110527;1256;22345;-58
2023/12/06 06:12:25;;;;;;;10.90;7.00;;;;;;;12.60;47.58;101902.41;110191;1259;22408;-58
2023/12/06 06:14:53;;;;;;;11.50;6.70;;;;;;;12.58;47.62;101904.35;110421;1258;22141;-60
2023/12/06 06:17:21;;;;;;;10.90;7.20;;;;;;;12.56;47.81;101906.30;110117;1264;22541;-58
2023/12/06 06:19:49;;;;;;;9.40;6.50;;;;;;;12.55;47.78;101903.70;110550;1256;22419;-58
2023/12/06 06:22:17;;;;;;;11.10;7.50;;;;;;;12.55;47.76;101906.30;110593;1255;22385;-57
2023/12/06 06:24:44;;;;;;;12.90;7.30;;;;;;;12.53;47.79;101901.81;110569;1259;22227;-58
2023/12/06 06:27:12;;;;;;;11.10;6.30;;;;;;;12.51;47.74;101909.14;110558;1256;22796;-58
2023/12/06 06:29:40;;;;;;;12.90;6.90;;;;;;;12.49;47.73;101903.60;110580;1256;22382;-58
2023/12/06 06:32:07;;;;;;;14.40;7.30;;;;;;;12.47;47.56;101897.69;109778;1273;1007005;-58
2023/12/06 06:34:35;;;;;;;14.50;6.40;;;;;;;12.47;47.51;101897.35;110524;1257;22946;-58
2023/12/06 06:37:05;;;;;;;8.70;6.30;;;;;;;12.46;47.26;101901.20;109748;1256;1002668;-58
2023/12/06 06:39:32;;;;;;;8.70;6.30;;;;;;;12.43;47.14;101902.79;110530;1257;22156;-58
2023/12/06 06:42:00;;;;;;;11.30;5.70;;;;;;;12.41;47.04;101901.26;110577;1257;22404;-57
2023/12/06 06:44:30;;;;;;;8.10;5.60;;;;;;;12.41;46.98;101901.25;110562;1259;22294;-58
2023/12/06 06:46:58;;;;;;;9.90;5.70;;;;;;;12.46;46.62;101897.36;110507;1270;22154;-58
2023/12/06 06:49:25;;;;;;;13.70;7.80;;;;;;;12.45;46.58;101905.91;110540;1257;22859;-58
2023/12/06 06:51:53;;;;;;;8.90;6.40;;;;;;;12.45;46.63;101905.73;110532;1256;22424;-58
2023/12/06 06:54:21;;;;;;;9.10;6.00;;;;;;;12.43;46.45;101905.41;110577;1259;22303;-58
2023/12/06 06:56:48;;;;;;;13.70;6.30;;;;;;;12.43;46.35;101909.41;110243;1259;22452;-58
2023/12/06 06:59:16;;;;;;;15.80;6.40;;;;;;;12.42;46.36;101912.04;110565;1257;22342;-58
2023/12/06 07:01:44;;;;;;;11.80;6.10;;;;;;;12.43;46.45;101916.90;110548;1258;22901;-58
2023/12/06 07:04:11;;;;;;;9.80;6.50;;;;;;;12.44;46.39;101926.10;110534;1258;22420;-58
2023/12/06 07:06:39;;;;;;;11.40;7.00;;;;;;;12.45;46.50;101920.70;110557;1257;22883;-58
2023/12/06 07:09:08;;;;;;;12.30;6.60;;;;;;;12.48;46.72;101927.45;110534;1253;22288;-58
2023/12/06 07:11:36;;;;;;;17.70;7.20;;;;;;;12.50;46.63;101930.73;110549;1267;23040;-58
2023/12/06 07:14:03;;;;;;;10.10;6.50;;;;;;;12.51;46.61;101939.08;110440;1275;22219;-58
2023/12/06 07:16:31;;;;;;;9.70;6.90;;;;;;;12.52;46.41;101941.68;110456;1257;22369;-58
2023/12/06 07:18:59;;;;;;;8.20;6.00;;;;;;;12.50;46.39;101946.75;110233;1262;22444;-58
2023/12/06 07:21:27;;;;;;;9.80;6.30;;;;;;;12.51;46.10;101950.23;110536;1257;22116;-58
2023/12/06 07:23:55;;;;;;;9.70;6.70;;;;;;;12.51;45.96;101954.57;110002;1262;258724;-58
2023/12/06 07:26:22;;;;;;;12.50;7.90;;;;;;;12.51;45.99;101958.22;109838;1256;1003015;-58
2023/12/06 07:28:50;;;;;;;9.80;6.40;;;;;;;12.53;45.92;101955.77;110556;1257;24059;-58
2023/12/06 07:31:19;;;;;;;10.20;6.70;;;;;;;12.56;45.90;101960.59;110531;1257;23224;-58
2023/12/06 07:33:50;;;;;;;10.60;6.80;;;;;;;12.57;45.89;101958.15;110274;1259;22148;-58
2023/12/06 07:36:24;;;;;;;9.80;6.50;;;;;;;12.56;45.95;101960.78;110494;1257;22294;-58
2023/12/06 07:38:52;;;;;;;10.50;6.40;;;;;;;12.56;45.89;101958.87;110566;1257;22774;-58
2023/12/06 07:41:20;;;;;;;15.10;7.30;;;;;;;12.57;45.88;101959.02;109714;1257;1003060;-58
2023/12/06 07:43:48;;;;;;;14.10;7.00;;;;;;;12.58;45.85;101963.36;110539;1259;22274;-58
2023/12/06 07:46:15;;;;;;;8.90;6.20;;;;;;;12.57;45.67;101963.54;109773;1256;1002903;-58
2023/12/06 07:48:43;;;;;;;8.40;6.40;;;;;;;12.56;45.43;101958.52;109748;1256;1002138;-58
2023/12/06 07:51:11;;;;;;;9.20;6.30;;;;;;;12.54;45.33;101961.33;110491;1271;22294;-58
2023/12/06 07:53:39;;;;;;;12.90;7.10;;;;;;;12.51;45.33;101958.73;110526;1264;22127;-58
2023/12/06 07:56:07;;;;;;;8.80;6.80;;;;;;;12.49;45.23;101956.33;110527;1257;22106;-58
2023/12/06 07:58:35;;;;;;;10.00;7.10;;;;;;;12.47;45.08;101950.43;110208;1260;22925;-58
2023/12/06 08:01:03;;;;;;;18.20;7.00;;;;;;;12.45;45.18;101948.89;110479;1257;22142;-58
2023/12/06 08:03:31;;;;;;;9.50;6.80;;;;;;;12.44;45.26;101944.20;110083;1262;23045;-57
2023/12/06 08:05:59;;;;;;;7.40;5.70;;;;;;;12.46;45.36;101945.23;110581;1257;22351;-57
2023/12/06 08:08:27;;;;;;;10.70;6.60;;;;;;;12.46;45.21;101943.83;109425;1266;1006868;-58
2023/12/06 08:10:55;;;;;;;11.90;6.80;;;;;;;12.46;45.28;101950.45;110570;1257;22619;-58
2023/12/06 08:13:25;;;;;;;12.30;7.00;;;;;;;12.48;45.21;101950.25;110494;1257;22311;-58
2023/12/06 08:15:53;;;;;;;11.80;6.30;;;;;;;12.51;45.10;101946.22;110291;1264;22360;-58
2023/12/06 08:18:20;;;;;;;10.70;7.10;;;;;;;12.53;44.98;101940.98;110498;1259;22139;-58
2023/12/06 08:20:48;;;;;;;11.30;7.30;;;;;;;12.52;45.00;101936.45;110545;1256;22169;-58
2023/12/06 08:23:16;;;;;;;9.30;6.60;;;;;;;12.51;45.05;101929.86;110526;1268;22259;-58
2023/12/06 08:25:43;;;;;;;12.50;7.10;;;;;;;12.51;44.98;101932.11;110231;1260;22322;-58
2023/12/06 08:28:11;;;;;;;9.90;6.70;;;;;;;12.49;45.03;101932.48;110483;1257;22149;-60
2023/12/06 08:30:39;;;;;;;12.50;8.60;;;;;;;12.51;45.08;101929.69;110595;1260;22408;-58
2023/12/06 08:33:07;;;;;;;12.10;7.30;;;;;;;12.52;44.95;101926.36;110543;1256;23130;-59
2023/12/06 08:35:35;;;;;;;13.50;8.40;;;;;;;12.50;44.83;101927.61;109794;1257;1002512;-58
2023/12/06 08:38:03;;;;;;;16.10;7.90;;;;;;;12.46;44.97;101925.38;109779;1256;1002936;-59
2023/12/06 08:40:31;;;;;;;13.80;7.20;;;;;;;12.46;45.03;101929.58;110540;1257;22366;-58
2023/12/06 08:43:00;;;;;;;10.00;7.10;;;;;;;12.47;45.08;101932.67;110445;1269;22719;-59
2023/12/06 08:45:27;;;;;;;7.90;6.20;;;;;;;12.49;45.03;101928.49;110250;1260;22625;-58
2023/12/06 08:47:55;;;;;;;12.90;7.50;;;;;;;12.52;44.97;101927.06;110544;1256;22537;-58
2023/12/06 08:50:25;;;;;;;10.90;7.50;;;;;;;12.53;44.95;101927.04;110468;1271;22152;-59
2023/12/06 08:52:53;;;;;;;9.50;7.20;;;;;;;12.53;45.00;101926.52;110562;1256;22469;-58
2023/12/06 08:55:20;;;;;;;11.30;6.90;;;;;;;12.53;44.96;101923.05;110508;1257;22386;-58
2023/12/06 08:57:50;;;;;;;14.90;7.20;;;;;;;12.52;45.07;101921.31;110479;1272;22306;-59
2023/12/06 09:00:17;;;;;;;10.40;7.10;;;;;;;12.55;45.05;101921.11;110219;1260;22325;-58
2023/12/06 09:02:45;;;;;;;9.20;6.40;;;;;;;12.54;45.04;101920.42;110438;1256;22785;-60
2023/12/06 09:05:13;;;;;;;12.10;7.00;;;;;;;12.52;45.08;101923.23;110193;1261;22440;-57
2023/12/06 09:07:40;;;;;;;11.60;6.90;;;;;;;12.53;45.10;101925.64;110449;1257;22421;-57
2023/12/06 09:10:09;;;;;;;11.50;6.60;;;;;;;12.55;45.03;101925.28;110454;1273;23095;-57
2023/12/06 09:12:37;;;;;;;12.90;6.30;;;;;;;12.56;44.98;101926.30;110102;1267;22362;-58
2023/12/06 09:15:05;;;;;;;9.80;6.10;;;;;;;12.59;45.06;101927.67;109738;1257;1002560;-58
2023/12/06 09:17:33;;;;;;;12.20;6.40;;;;;;;12.63;44.89;101924.30;110437;1257;22415;-58
2023/12/06 09:20:01;;;;;;;9.10;6.30;;;;;;;12.68;44.77;101915.92;110484;1257;22359;-58
2023/12/06 09:22:29;;;;;;;8.40;6.60;;;;;;;12.69;44.48;101914.68;110504;1268;22488;-59
2023/12/06 09:24:57;;;;;;;7.90;5.50;;;;;;;12.65;44.60;101911.59;110122;1260;22851;-58
2023/12/06 09:27:25;;;;;;;9.30;5.80;;;;;;;12.64;44.79;101910.37;110495;1256;22288;-58
2023/12/06 09:29:53;;;;;;;12.60;6.40;;;;;;;12.65;44.88;101904.09;110462;1257;24726;-59
2023/12/06 09:32:20;;;;;;;10.00;6.90;;;;;;;12.65;44.90;101898.00;109765;1257;1002106;-58
2023/12/06 09:34:49;;;;;;;13.50;6.40;;;;;;;12.64;44.86;101893.84;110507;1254;22177;-58
2023/12/06 09:37:16;;;;;;;12.00;7.00;;;;;;;12.64;45.22;101885.14;110165;1258;22747;-58
2023/12/06 09:39:44;;;;;;;11.90;6.50;;;;;;;12.65;45.14;101883.90;110446;1269;23031;-58
2023/12/06 09:42:12;;;;;;;8.10;6.00;;;;;;;12.65;45.00;101883.91;110468;1257;22141;-58
2023/12/06 09:44:43;;;;;;;8.60;6.20;;;;;;;12.64;45.07;101881.83;110445;1254;22427;-58
2023/12/06 09:47:11;;;;;;;13.20;6.70;;;;;;;12.65;45.26;101881.30;110315;1260;22355;-59
2023/12/06 09:49:39;;;;;;;10.20;6.50;;;;;;;12.68;45.33;101879.18;110492;1258;22754;-59
2023/12/06 09:52:18;;;;;;;8.00;6.30;;;;;;;12.69;45.28;101878.46;110438;1275;22200;-58
2023/12/06 09:54:46;;;;;;;9.80;5.80;;;;;;;12.69;45.54;101883.52;110460;1258;22804;-58
2023/12/06 09:57:15;;;;;;;9.50;6.30;;;;;;;12.69;45.42;101879.16;110345;1260;22332;-58
2023/12/06 09:59:42;;;;;;;11.00;6.20;;;;;;;12.70;45.44;101876.36;110378;1275;22787;-58
2023/12/06 10:02:10;;;;;;;11.10;7.20;;;;;;;12.73;45.35;101874.75;110436;1275;22118;-58
2023/12/06 10:04:38;;;;;;;10.20;6.50;;;;;;;12.75;45.34;101876.65;110494;1257;22836;-58
2023/12/06 10:07:06;;;;;;;8.30;5.80;;;;;;;12.78;45.44;101874.35;109393;1269;1002651;-59
2023/12/06 10:09:34;;;;;;;8.60;6.20;;;;;;;12.82;45.40;101871.68;110349;1257;22181;-58
2023/12/06 10:12:21;;;;;;;9.60;6.70;;;;;;;12.83;45.28;101873.23;110491;1255;22837;-58
2023/12/06 10:14:58;;;;;;;10.40;6.50;;;;;;;12.83;45.27;101866.09;109713;1275;1002104;-58
2023/12/06 10:17:26;;;;;;;10.40;6.40;;;;;;;12.82;44.96;101859.67;110441;1275;22771;-58
2023/12/06 10:19:57;;;;;;;8.90;6.00;;;;;;;12.75;44.84;101856.97;109618;1270;1003007;-58
2023/12/06 10:22:26;;;;;;;7.10;6.30;;;;;;;12.71;44.79;101862.41;110510;1258;23210;-58
2023/12/06 10:24:56;;;;;;;11.00;7.70;;;;;;;12.71;44.79;101865.56;110441;1270;22742;-58
2023/12/06 10:27:24;;;;;;;9.30;6.70;;;;;;;12.68;44.75;101863.69;110465;1254;22193;-58
2023/12/06 10:29:53;;;;;;;9.20;6.20;;;;;;;12.66;44.72;101865.61;110452;1257;22942;-58
2023/12/06 10:32:21;;;;;;;7.90;6.50;;;;;;;12.65;44.64;101864.39;110504;1256;22394;-58
2023/12/06 10:34:48;;;;;;;10.00;6.30;;;;;;;12.64;44.72;101862.32;110455;1275;22412;-58
2023/12/06 10:37:19;;;;;;;10.40;7.00;;;;;;;12.65;44.67;101862.31;110431;1270;22324;-59
2023/12/06 10:39:48;;;;;;;7.10;6.00;;;;;;;12.66;44.44;101860.05;110406;1270;22218;-58
2023/12/06 10:42:19;;;;;;;7.60;6.00;;;;;;;12.64;44.32;101856.76;110444;1257;22151;-58
2023/12/06 10:44:47;;;;;;;8.60;7.40;;;;;;;12.60;44.34;101855.94;109616;1254;1003085;-59
2023/12/06 10:47:14;;;;;;;8.90;6.90;;;;;;;12.57;44.46;101856.69;109664;1269;1002218;-58
2023/12/06 10:49:42;;;;;;;13.10;8.80;;;;;;;12.54;44.45;101859.67;110477;1254;22150;-58
2023/12/06 10:52:10;;;;;;;10.70;7.60;;;;;;;12.52;44.46;101860.22;110185;1260;22206;-59
2023/12/06 10:54:39;;;;;;;9.00;6.70;;;;;;;12.50;44.36;101856.94;110370;1259;22406;-59
2023/12/06 10:57:07;;;;;;;8.90;6.40;;;;;;;12.49;44.41;101859.92;110060;1275;22890;-58
2023/12/06 10:59:35;;;;;;;10.30;7.20;;;;;;;12.47;44.32;101861.85;110397;1269;22352;-58
2023/12/06 11:02:02;;;;;;;10.40;7.60;;;;;;;12.45;44.32;101868.65;110351;1271;22346;-58
2023/12/06 11:04:31;;;;;;;8.10;6.50;;;;;;;12.46;44.43;101871.26;110449;1275;22374;-58
2023/12/06 11:07:11;;;;;;;7.70;5.80;;;;;;;12.47;44.49;101878.04;110311;1275;22123;-58
2023/12/06 11:10:28;;;;;;;7.80;6.10;;;;;;;12.50;44.71;101876.79;110478;1268;22129;-58
2023/12/06 11:13:04;;;;;;;11.80;7.80;;;;;;;12.51;44.55;101874.87;110033;1263;22407;-58
2023/12/06 11:15:47;;;;;;;12.40;6.60;;;;;;;12.51;44.82;101875.20;109912;1280;22320;-58
2023/12/06 11:18:18;;;;;;;9.70;7.30;;;;;;;12.52;44.94;101871.36;109821;1262;23031;-58